sensor_id;sensor_type;location;lat;lon;timestamp;pressure;altitude;pressure_sealevel;temperature;humidity
22582;BME280;47125;48.542;9.052;2024-01-15T00:12:47;94891.66;;;0.15;63.88
22582;BME280;47125;48.542;9.052;2024-01-15T00:22:49;94880.53;;;0.26;63.19
22582;BME280;47125;48.542;9.052;2024-01-15T00:32:53;94877.72;;;0.14;63.97
22582;BME280;47125;48.542;9.052;2024-01-15T00:42:56;94865.00;;;0.11;63.91
22582;BME280;47125;48.542;9.052;2024-01-15T00:52:59;94859.94;;;0.23;63.85
22582;BME280;47125;48.542;9.052;2024-01-15T01:03:02;94847.66;;;0.30;63.53
22582;BME280;47125;48.542;9.052;2024-01-15T01:13:06;94847.03;;;0.34;64.07
22582;BME280;47125;48.542;9.052;2024-01-15T01:23:08;94869.84;;;0.21;65.02
22582;BME280;47125;48.542;9.052;2024-01-15T01:33:12;94868.00;;;0.21;65.38
22582;BME280;47125;48.542;9.052;2024-01-15T01:43:15;94861.16;;;0.20;65.51
22582;BME280;47125;48.542;9.052;2024-01-15T01:53:18;94858.94;;;0.24;66.00
22582;BME280;47125;48.542;9.052;2024-01-15T02:03:21;94867.81;;;0.16;66.30
22582;BME280;47125;48.542;9.052;2024-01-15T02:13:26;94847.00;;;0.21;66.83
22582;BME280;47125;48.542;9.052;2024-01-15T02:23:30;94828.84;;;0.00;67.75
22582;BME280;47125;48.542;9.052;2024-01-15T02:33:33;94828.44;;;-0.10;68.84
22582;BME280;47125;48.542;9.052;2024-01-15T02:43:37;94818.97;;;0.02;68.79
22582;BME280;47125;48.542;9.052;2024-01-15T02:53:39;94820.97;;;-0.07;69.66
22582;BME280;47125;48.542;9.052;2024-01-15T03:03:43;94815.72;;;-0.07;69.31
22582;BME280;47125;48.542;9.052;2024-01-15T03:13:45;94822.38;;;-0.04;70.06
22582;BME280;47125;48.542;9.052;2024-01-15T03:23:49;94832.03;;;-0.18;70.62
22582;BME280;47125;48.542;9.052;2024-01-15T03:33:52;94830.25;;;0.09;70.50
22582;BME280;47125;48.542;9.052;2024-01-15T03:43:56;94831.06;;;0.23;70.45
22582;BME280;47125;48.542;9.052;2024-01-15T03:53:59;94822.59;;;0.40;69.87
22582;BME280;47125;48.542;9.052;2024-01-15T04:04:03;94817.31;;;0.53;69.56
22582;BME280;47125;48.542;9.052;2024-01-15T04:14:06;94818.91;;;0.54;69.58
22582;BME280;47125;48.542;9.052;2024-01-15T04:24:10;94813.66;;;0.61;69.96
22582;BME280;47125;48.542;9.052;2024-01-15T04:34:12;94811.84;;;0.62;70.84
22582;BME280;47125;48.542;9.052;2024-01-15T04:44:16;94805.38;;;0.57;71.79
22582;BME280;47125;48.542;9.052;2024-01-15T04:54:18;94801.97;;;0.44;71.80
22582;BME280;47125;48.542;9.052;2024-01-15T05:04:23;94801.75;;;0.65;71.57
22582;BME280;47125;48.542;9.052;2024-01-15T05:14:26;94804.38;;;0.59;71.59
22582;BME280;47125;48.542;9.052;2024-01-15T05:24:30;94789.63;;;0.64;71.92
22582;BME280;47125;48.542;9.052;2024-01-15T05:34:33;94780.78;;;0.39;73.69
22582;BME280;47125;48.542;9.052;2024-01-15T05:44:37;94770.25;;;0.59;73.50
22582;BME280;47125;48.542;9.052;2024-01-15T05:54:39;94784.41;;;0.51;73.82
22582;BME280;47125;48.542;9.052;2024-01-15T06:04:43;94783.59;;;0.44;74.49
22582;BME280;47125;48.542;9.052;2024-01-15T06:14:45;94798.13;;;0.46;74.36
22582;BME280;47125;48.542;9.052;2024-01-15T06:24:49;94782.19;;;0.48;73.63
22582;BME280;47125;48.542;9.052;2024-01-15T06:34:52;94773.09;;;0.57;73.00
22582;BME280;47125;48.542;9.052;2024-01-15T06:44:56;94762.34;;;0.72;71.59
22582;BME280;47125;48.542;9.052;2024-01-15T06:54:58;94756.28;;;0.71;71.25
22582;BME280;47125;48.542;9.052;2024-01-15T07:05:02;94749.22;;;0.65;70.81
22582;BME280;47125;48.542;9.052;2024-01-15T07:15:06;94724.53;;;0.73;70.10
22582;BME280;47125;48.542;9.052;2024-01-15T07:25:11;94727.53;;;0.83;68.99
22582;BME280;47125;48.542;9.052;2024-01-15T07:35:14;94728.38;;;0.70;69.49
22582;BME280;47125;48.542;9.052;2024-01-15T07:45:18;94718.84;;;0.76;68.91
22582;BME280;47125;48.542;9.052;2024-01-15T07:55:20;94722.53;;;0.68;67.73
22582;BME280;47125;48.542;9.052;2024-01-15T08:05:24;94725.09;;;0.81;66.23
22582;BME280;47125;48.542;9.052;2024-01-15T08:15:27;94721.91;;;0.73;66.29
22582;BME280;47125;48.542;9.052;2024-01-15T08:25:33;94714.38;;;0.89;65.24
22582;BME280;47125;48.542;9.052;2024-01-15T08:35:36;94722.84;;;0.91;64.74
22582;BME280;47125;48.542;9.052;2024-01-15T08:45:39;94735.94;;;0.98;63.35
22582;BME280;47125;48.542;9.052;2024-01-15T08:55:42;94733.19;;;1.24;62.67
22582;BME280;47125;48.542;9.052;2024-01-15T09:05:47;94725.69;;;1.28;62.12
22582;BME280;47125;48.542;9.052;2024-01-15T09:15:51;94724.75;;;1.16;61.93
22582;BME280;47125;48.542;9.052;2024-01-15T09:25:55;94710.44;;;1.43;61.88
22582;BME280;47125;48.542;9.052;2024-01-15T09:36:00;94703.97;;;1.39;61.71
22582;BME280;47125;48.542;9.052;2024-01-15T09:46:04;94684.09;;;1.49;61.65
22582;BME280;47125;48.542;9.052;2024-01-15T09:56:07;94679.72;;;1.68;61.00
22582;BME280;47125;48.542;9.052;2024-01-15T10:06:12;94678.63;;;1.76;60.86
22582;BME280;47125;48.542;9.052;2024-01-15T10:16:22;94677.47;;;1.90;60.45
22582;BME280;47125;48.542;9.052;2024-01-15T10:26:26;94654.06;;;1.82;59.50
22582;BME280;47125;48.542;9.052;2024-01-15T10:36:29;94640.56;;;1.96;59.55
22582;BME280;47125;48.542;9.052;2024-01-15T10:46:33;94638.53;;;1.98;59.32
22582;BME280;47125;48.542;9.052;2024-01-15T10:56:36;94637.56;;;1.93;60.11
22582;BME280;47125;48.542;9.052;2024-01-15T11:06:44;94657.22;;;1.90;61.06
22582;BME280;47125;48.542;9.052;2024-01-15T11:16:53;94651.81;;;1.85;62.31
22582;BME280;47125;48.542;9.052;2024-01-15T11:26:57;94648.75;;;1.88;63.64
22582;BME280;47125;48.542;9.052;2024-01-15T11:37:02;94630.97;;;1.84;65.21
22582;BME280;47125;48.542;9.052;2024-01-15T11:47:09;94629.88;;;1.73;68.46
22582;BME280;47125;48.542;9.052;2024-01-15T11:57:17;94636.22;;;1.84;69.46
22582;BME280;47125;48.542;9.052;2024-01-15T12:07:22;94632.69;;;1.72;69.96
22582;BME280;47125;48.542;9.052;2024-01-15T12:17:25;94616.75;;;1.91;69.46
22582;BME280;47125;48.542;9.052;2024-01-15T12:27:29;94628.19;;;1.79;70.65
22582;BME280;47125;48.542;9.052;2024-01-15T12:37:32;94618.38;;;1.67;71.96
22582;BME280;47125;48.542;9.052;2024-01-15T12:47:35;94627.88;;;1.68;75.11
22582;BME280;47125;48.542;9.052;2024-01-15T12:57:38;94633.50;;;1.47;76.15
22582;BME280;47125;48.542;9.052;2024-01-15T13:07:42;94627.13;;;1.61;78.46
22582;BME280;47125;48.542;9.052;2024-01-15T13:17:45;94629.72;;;1.43;78.76
22582;BME280;47125;48.542;9.052;2024-01-15T13:27:49;94633.41;;;1.60;79.33
22582;BME280;47125;48.542;9.052;2024-01-15T13:37:51;94644.84;;;1.48;81.06
22582;BME280;47125;48.542;9.052;2024-01-15T13:47:55;94660.53;;;1.30;82.58
22582;BME280;47125;48.542;9.052;2024-01-15T13:57:58;94649.25;;;1.54;83.99
22582;BME280;47125;48.542;9.052;2024-01-15T14:08:02;94663.91;;;1.43;84.72
22582;BME280;47125;48.542;9.052;2024-01-15T14:18:04;94680.91;;;1.41;85.32
22582;BME280;47125;48.542;9.052;2024-01-15T14:28:08;94683.97;;;1.62;85.54
22582;BME280;47125;48.542;9.052;2024-01-15T14:38:11;94697.72;;;1.40;85.76
22582;BME280;47125;48.542;9.052;2024-01-15T14:48:15;94706.38;;;1.47;87.12
22582;BME280;47125;48.542;9.052;2024-01-15T14:58:18;94750.31;;;1.40;87.46
22582;BME280;47125;48.542;9.052;2024-01-15T15:08:22;94776.06;;;1.25;87.88
22582;BME280;47125;48.542;9.052;2024-01-15T15:18:24;94793.91;;;1.54;85.43
22582;BME280;47125;48.542;9.052;2024-01-15T15:28:29;94807.25;;;1.59;81.19
22582;BME280;47125;48.542;9.052;2024-01-15T15:38:31;94817.13;;;1.26;78.12
22582;BME280;47125;48.542;9.052;2024-01-15T15:48:35;94836.53;;;1.25;75.98
22582;BME280;47125;48.542;9.052;2024-01-15T15:58:38;94861.16;;;1.43;75.61
22582;BME280;47125;48.542;9.052;2024-01-15T16:08:42;94885.69;;;1.24;74.28
22582;BME280;47125;48.542;9.052;2024-01-15T16:18:45;94895.63;;;1.09;72.04
22582;BME280;47125;48.542;9.052;2024-01-15T16:29:09;94901.69;;;1.09;71.72
22582;BME280;47125;48.542;9.052;2024-01-15T16:39:11;94920.09;;;1.09;70.21
22582;BME280;47125;48.542;9.052;2024-01-15T16:49:15;94932.66;;;0.94;70.22
22582;BME280;47125;48.542;9.052;2024-01-15T16:59:19;94941.34;;;1.01;68.38
22582;BME280;47125;48.542;9.052;2024-01-15T17:09:24;94964.59;;;1.04;68.66
22582;BME280;47125;48.542;9.052;2024-01-15T17:19:26;94974.72;;;1.07;67.82
22582;BME280;47125;48.542;9.052;2024-01-15T17:29:30;94981.38;;;0.84;68.06
22582;BME280;47125;48.542;9.052;2024-01-15T17:39:33;95001.59;;;1.09;68.36
22582;BME280;47125;48.542;9.052;2024-01-15T17:49:37;95018.97;;;0.97;69.58
22582;BME280;47125;48.542;9.052;2024-01-15T17:59:40;95025.81;;;0.72;70.26
22582;BME280;47125;48.542;9.052;2024-01-15T18:09:43;95027.84;;;0.77;69.91
22582;BME280;47125;48.542;9.052;2024-01-15T18:19:47;95047.47;;;0.87;69.13
22582;BME280;47125;48.542;9.052;2024-01-15T18:29:51;95071.13;;;1.00;67.92
22582;BME280;47125;48.542;9.052;2024-01-15T18:39:54;95078.63;;;0.84;66.14
22582;BME280;47125;48.542;9.052;2024-01-15T18:49:58;95095.16;;;0.84;66.16
22582;BME280;47125;48.542;9.052;2024-01-15T19:00:00;95101.81;;;0.74;65.28
22582;BME280;47125;48.542;9.052;2024-01-15T19:10:06;95112.19;;;1.01;65.09
22582;BME280;47125;48.542;9.052;2024-01-15T19:20:09;95124.53;;;1.01;64.68
22582;BME280;47125;48.542;9.052;2024-01-15T19:30:14;95127.53;;;0.91;65.20
22582;BME280;47125;48.542;9.052;2024-01-15T19:40:17;95148.16;;;0.94;64.78
22582;BME280;47125;48.542;9.052;2024-01-15T19:50:21;95148.78;;;0.90;64.69
22582;BME280;47125;48.542;9.052;2024-01-15T20:00:24;95144.69;;;0.74;65.47
22582;BME280;47125;48.542;9.052;2024-01-15T20:10:28;95150.09;;;0.66;66.12
22582;BME280;47125;48.542;9.052;2024-01-15T20:20:31;95170.66;;;0.56;66.18
22582;BME280;47125;48.542;9.052;2024-01-15T20:30:34;95177.16;;;0.60;65.45
22582;BME280;47125;48.542;9.052;2024-01-15T20:40:38;95183.47;;;0.79;64.99
22582;BME280;47125;48.542;9.052;2024-01-15T20:50:42;95185.47;;;0.70;65.30
22582;BME280;47125;48.542;9.052;2024-01-15T21:00:44;95187.31;;;0.76;65.18
22582;BME280;47125;48.542;9.052;2024-01-15T21:10:48;95191.97;;;0.74;65.17
22582;BME280;47125;48.542;9.052;2024-01-15T21:20:51;95198.03;;;0.75;64.88
22582;BME280;47125;48.542;9.052;2024-01-15T21:30:57;95214.59;;;0.75;65.46
22582;BME280;47125;48.542;9.052;2024-01-15T21:41:01;95213.13;;;0.66;65.96
22582;BME280;47125;48.542;9.052;2024-01-15T21:51:05;95218.69;;;0.43;66.36
22582;BME280;47125;48.542;9.052;2024-01-15T22:01:07;95231.44;;;0.46;65.78
22582;BME280;47125;48.542;9.052;2024-01-15T22:11:13;95243.59;;;0.20;65.81
22582;BME280;47125;48.542;9.052;2024-01-15T22:21:15;95247.25;;;0.25;66.13
22582;BME280;47125;48.542;9.052;2024-01-15T22:31:19;95252.00;;;0.09;66.37
22582;BME280;47125;48.542;9.052;2024-01-15T22:41:22;95269.31;;;0.31;65.90
22582;BME280;47125;48.542;9.052;2024-01-15T22:51:26;95284.22;;;0.24;65.54
22582;BME280;47125;48.542;9.052;2024-01-15T23:01:29;95299.19;;;0.30;64.88
22582;BME280;47125;48.542;9.052;2024-01-15T23:11:33;95306.84;;;0.04;64.67
22582;BME280;47125;48.542;9.052;2024-01-15T23:21:35;95302.16;;;0.20;64.54
22582;BME280;47125;48.542;9.052;2024-01-15T23:31:40;95306.75;;;0.18;64.18
22582;BME280;47125;48.542;9.052;2024-01-15T23:41:43;95311.06;;;0.26;64.96
22582;BME280;47125;48.542;9.052;2024-01-15T23:51:49;95322.50;;;0.18;64.56
